LFST 191430Z AUTO 18004KT 130V210 CAVOK 30/11 Q1009 TEMPO FEW060CB

TAF LFST 191100Z 1912/2012 18008KT CAVOK TEMPO 1912/1922 FEW060CB PROB40 TEMPO 1919/1922 28020G40KT 2000 +TSRA BKN060CB PROB40 TEMPO 2009/2012 SHRA FEW040CB

 

Temperature in degrees Celsius: 30
Dew Point Temperature in degrees Celsius: 11

 

http://openflyers.com/case/icingChart.php?chart=2&temperature=30&dewPoint=11